메인 페이지
METAR-TAF:

METAR-TAF

공항 :

뉴욕 / 라가디아, 뉴욕, 미국

라과디아 공항

위도: 40-46-45N, 경도: 073-52-48W, 고도: 6m

현재 날씨관측

예보는 59분 전, 17:51시(UTC)에 발표되었습니다.
9kt
온도 2°C
습도 40%
기압 1016 hPa
시정: 16.1km
고도 20000ft 상공 구름 많음

METAR: KLGA 191751Z 28009KT 10SM BKN200 02/M10 A3001 RMK AO2 SLP160 T00221100 10022 20000 58026

시각: 13:50 (18:50 UTC)

예보

예보는 1 시간 10분 전, 17:40시(UTC)에 발표되었습니다.
예보 대상 시간: 19일 18시부터 20일 24시까지 (UTC)
12kt
시정: 10km
고도 20000ft 상공 흐림
19일 2300시부터 (UTC)
남서7kt
시정: 10km
고도 15000ft 상공 구름 조금
20일 0700시부터 (UTC)
남서10kt
시정: 10km
고도 20000ft 상공 구름 보통
20일 1500시부터 (UTC)
서남서12kt, 순간 최대 풍속 22kt
시정: 10km
고도 20000ft 상공 구름 보통
20일 2200시부터 (UTC)
서남서10kt, 순간 최대 풍속 20kt
시정: 10km
고도 20000ft 상공 구름 보통

TAF: KLGA 191740Z 1918/2024 27012KT P6SM OVC200 FM192300 23007KT P6SM FEW150 FM200700 23010KT P6SM SCT200 WS020/26040KT FM201500 24012G22KT P6SM SCT200 FM202200 25010G20KT P6SM SCT200

4,000개 이상의 공항 관측 자료 및 예보 (METAR 및 TAF 보고).

지도상에서 검색 가능한 기상관측소가 노란 점과 빨간 점으로 표시되어 있습니다.

기상관측소 명을 보려면 표시 위로 마우스를 이동하세요.

날씨 관측과 예보를 보려면 클릭하세요.

지도 변경 : 확대하려면 엑스 표시가 있는 녹색 버튼, 축소하려면 빼기 표시가 있는 녹색 버튼, 다음 페이지의 지도를 보려면 녹색 화살표를 클릭하세요.


METAR-TAF: